sensor_id;sensor_type;location;lat;lon;timestamp;P1;durP1;ratioP1;P2;durP2;ratioP2
20454;SDS011;10386;54.314;10.022;2023-04-03T00:00:31;5.17;;;2.70;;
20454;SDS011;10386;54.314;10.022;2023-04-03T00:02:58;2.77;;;2.43;;
20454;SDS011;10386;54.314;10.022;2023-04-03T00:05:25;5.23;;;3.10;;
20454;SDS011;10386;54.314;10.022;2023-04-03T00:07:52;3.77;;;2.60;;
20454;SDS011;10386;54.314;10.022;2023-04-03T00:10:19;6.43;;;2.53;;
20454;SDS011;10386;54.314;10.022;2023-04-03T00:12:46;4.87;;;2.30;;
20454;SDS011;10386;54.314;10.022;2023-04-03T00:15:13;4.87;;;2.80;;
20454;SDS011;10386;54.314;10.022;2023-04-03T00:17:39;4.57;;;2.80;;
20454;SDS011;10386;54.314;10.022;2023-04-03T00:20:06;3.57;;;2.77;;
20454;SDS011;10386;54.314;10.022;2023-04-03T00:22:34;4.73;;;2.57;;
20454;SDS011;10386;54.314;10.022;2023-04-03T00:25:00;2.63;;;2.27;;
20454;SDS011;10386;54.314;10.022;2023-04-03T00:27:27;5.10;;;2.30;;
20454;SDS011;10386;54.314;10.022;2023-04-03T00:29:56;2.60;;;2.30;;
20454;SDS011;10386;54.314;10.022;2023-04-03T00:32:24;3.77;;;2.20;;
20454;SDS011;10386;54.314;10.022;2023-04-03T00:34:51;3.40;;;2.33;;
20454;SDS011;10386;54.314;10.022;2023-04-03T00:37:18;4.37;;;1.73;;
20454;SDS011;10386;54.314;10.022;2023-04-03T00:39:44;4.00;;;2.37;;
20454;SDS011;10386;54.314;10.022;2023-04-03T00:42:11;3.30;;;2.37;;
20454;SDS011;10386;54.314;10.022;2023-04-03T00:47:05;3.67;;;2.30;;
20454;SDS011;10386;54.314;10.022;2023-04-03T00:49:34;3.40;;;2.00;;
20454;SDS011;10386;54.314;10.022;2023-04-03T00:52:03;2.50;;;2.30;;
20454;SDS011;10386;54.314;10.022;2023-04-03T00:54:33;6.53;;;2.23;;
20454;SDS011;10386;54.314;10.022;2023-04-03T00:57:02;4.10;;;2.20;;
20454;SDS011;10386;54.314;10.022;2023-04-03T00:59:31;4.50;;;2.50;;
20454;SDS011;10386;54.314;10.022;2023-04-03T01:02:02;3.37;;;1.80;;
20454;SDS011;10386;54.314;10.022;2023-04-03T01:04:33;3.30;;;2.10;;
20454;SDS011;10386;54.314;10.022;2023-04-03T01:07:04;3.27;;;2.00;;
20454;SDS011;10386;54.314;10.022;2023-04-03T01:09:35;4.60;;;2.13;;
20454;SDS011;10386;54.314;10.022;2023-04-03T01:14:52;5.70;;;2.30;;
20454;SDS011;10386;54.314;10.022;2023-04-03T01:25:54;2.37;;;1.90;;
20454;SDS011;10386;54.314;10.022;2023-04-03T01:28:32;3.93;;;2.30;;
20454;SDS011;10386;54.314;10.022;2023-04-03T01:31:24;2.63;;;2.03;;
20454;SDS011;10386;54.314;10.022;2023-04-03T01:34:06;2.27;;;2.07;;
20454;SDS011;10386;54.314;10.022;2023-04-03T01:36:33;1.73;;;1.63;;
20454;SDS011;10386;54.314;10.022;2023-04-03T01:38:59;4.07;;;2.20;;
20454;SDS011;10386;54.314;10.022;2023-04-03T01:41:27;3.57;;;1.97;;
20454;SDS011;10386;54.314;10.022;2023-04-03T01:43:54;2.40;;;1.90;;
20454;SDS011;10386;54.314;10.022;2023-04-03T01:46:21;2.33;;;1.97;;
20454;SDS011;10386;54.314;10.022;2023-04-03T01:48:48;3.70;;;1.90;;
20454;SDS011;10386;54.314;10.022;2023-04-03T01:51:15;5.03;;;1.90;;
20454;SDS011;10386;54.314;10.022;2023-04-03T01:53:42;5.40;;;2.10;;
20454;SDS011;10386;54.314;10.022;2023-04-03T01:56:09;3.53;;;2.30;;
20454;SDS011;10386;54.314;10.022;2023-04-03T01:58:36;3.60;;;2.30;;
20454;SDS011;10386;54.314;10.022;2023-04-03T02:01:03;4.50;;;2.27;;
20454;SDS011;10386;54.314;10.022;2023-04-03T02:03:29;3.67;;;2.40;;
20454;SDS011;10386;54.314;10.022;2023-04-03T02:05:57;1.90;;;1.73;;
20454;SDS011;10386;54.314;10.022;2023-04-03T02:08:24;2.40;;;2.10;;
20454;SDS011;10386;54.314;10.022;2023-04-03T02:10:50;2.17;;;1.87;;
20454;SDS011;10386;54.314;10.022;2023-04-03T02:13:17;3.77;;;2.10;;
20454;SDS011;10386;54.314;10.022;2023-04-03T02:15:45;4.53;;;2.53;;
20454;SDS011;10386;54.314;10.022;2023-04-03T02:18:12;3.97;;;2.77;;
20454;SDS011;10386;54.314;10.022;2023-04-03T02:20:41;6.43;;;2.67;;
20454;SDS011;10386;54.314;10.022;2023-04-03T02:23:08;3.67;;;2.60;;
20454;SDS011;10386;54.314;10.022;2023-04-03T02:25:36;3.73;;;2.57;;
20454;SDS011;10386;54.314;10.022;2023-04-03T02:28:04;3.83;;;2.53;;
20454;SDS011;10386;54.314;10.022;2023-04-03T02:30:32;3.67;;;2.33;;
20454;SDS011;10386;54.314;10.022;2023-04-03T02:32:59;3.30;;;2.40;;
20454;SDS011;10386;54.314;10.022;2023-04-03T02:35:26;3.33;;;2.50;;
20454;SDS011;10386;54.314;10.022;2023-04-03T02:37:53;5.20;;;2.30;;
20454;SDS011;10386;54.314;10.022;2023-04-03T02:40:19;5.60;;;2.60;;
20454;SDS011;10386;54.314;10.022;2023-04-03T02:42:46;3.70;;;2.70;;
20454;SDS011;10386;54.314;10.022;2023-04-03T02:45:13;4.07;;;2.50;;
20454;SDS011;10386;54.314;10.022;2023-04-03T02:47:40;4.27;;;2.30;;
20454;SDS011;10386;54.314;10.022;2023-04-03T02:50:06;2.30;;;2.10;;
20454;SDS011;10386;54.314;10.022;2023-04-03T02:52:34;3.63;;;2.30;;
20454;SDS011;10386;54.314;10.022;2023-04-03T02:55:00;3.90;;;2.17;;
20454;SDS011;10386;54.314;10.022;2023-04-03T02:57:27;3.93;;;2.10;;
20454;SDS011;10386;54.314;10.022;2023-04-03T02:59:54;2.43;;;1.97;;
20454;SDS011;10386;54.314;10.022;2023-04-03T03:02:21;2.67;;;2.03;;
20454;SDS011;10386;54.314;10.022;2023-04-03T03:04:48;3.80;;;2.33;;
20454;SDS011;10386;54.314;10.022;2023-04-03T03:07:14;4.53;;;2.00;;
20454;SDS011;10386;54.314;10.022;2023-04-03T03:09:41;2.60;;;1.90;;
20454;SDS011;10386;54.314;10.022;2023-04-03T03:12:08;2.60;;;2.40;;
20454;SDS011;10386;54.314;10.022;2023-04-03T03:14:35;3.50;;;2.40;;
20454;SDS011;10386;54.314;10.022;2023-04-03T03:17:02;5.40;;;2.13;;
20454;SDS011;10386;54.314;10.022;2023-04-03T03:19:28;3.77;;;2.30;;
20454;SDS011;10386;54.314;10.022;2023-04-03T03:21:55;3.97;;;2.47;;
20454;SDS011;10386;54.314;10.022;2023-04-03T03:24:23;5.73;;;2.30;;
20454;SDS011;10386;54.314;10.022;2023-04-03T03:26:50;7.90;;;2.23;;
20454;SDS011;10386;54.314;10.022;2023-04-03T03:29:16;3.93;;;2.20;;
20454;SDS011;10386;54.314;10.022;2023-04-03T03:31:43;4.07;;;2.40;;
20454;SDS011;10386;54.314;10.022;2023-04-03T03:34:10;5.13;;;2.20;;
20454;SDS011;10386;54.314;10.022;2023-04-03T03:36:38;3.50;;;2.30;;
20454;SDS011;10386;54.314;10.022;2023-04-03T03:39:05;2.83;;;2.50;;
20454;SDS011;10386;54.314;10.022;2023-04-03T03:41:32;4.87;;;2.40;;
20454;SDS011;10386;54.314;10.022;2023-04-03T03:43:59;4.30;;;2.40;;
20454;SDS011;10386;54.314;10.022;2023-04-03T03:46:25;2.47;;;1.97;;
20454;SDS011;10386;54.314;10.022;2023-04-03T03:48:52;3.67;;;2.00;;
20454;SDS011;10386;54.314;10.022;2023-04-03T03:51:19;4.23;;;2.10;;
20454;SDS011;10386;54.314;10.022;2023-04-03T03:53:46;2.70;;;1.83;;
20454;SDS011;10386;54.314;10.022;2023-04-03T03:56:13;4.53;;;2.20;;
20454;SDS011;10386;54.314;10.022;2023-04-03T03:58:39;3.97;;;2.03;;
20454;SDS011;10386;54.314;10.022;2023-04-03T04:01:06;6.60;;;2.30;;
20454;SDS011;10386;54.314;10.022;2023-04-03T04:03:33;6.23;;;2.30;;
20454;SDS011;10386;54.314;10.022;2023-04-03T04:06:00;2.40;;;2.20;;
20454;SDS011;10386;54.314;10.022;2023-04-03T04:08:27;5.27;;;2.50;;
20454;SDS011;10386;54.314;10.022;2023-04-03T04:10:54;8.70;;;2.70;;
20454;SDS011;10386;54.314;10.022;2023-04-03T04:13:21;3.97;;;2.50;;
20454;SDS011;10386;54.314;10.022;2023-04-03T04:15:48;5.63;;;2.53;;
20454;SDS011;10386;54.314;10.022;2023-04-03T04:18:15;2.83;;;2.27;;
20454;SDS011;10386;54.314;10.022;2023-04-03T04:20:41;5.60;;;2.70;;
20454;SDS011;10386;54.314;10.022;2023-04-03T04:23:08;3.43;;;2.47;;
20454;SDS011;10386;54.314;10.022;2023-04-03T04:25:35;2.80;;;2.20;;
20454;SDS011;10386;54.314;10.022;2023-04-03T04:28:05;3.23;;;2.00;;
20454;SDS011;10386;54.314;10.022;2023-04-03T04:30:33;3.37;;;2.50;;
20454;SDS011;10386;54.314;10.022;2023-04-03T04:33:00;2.47;;;2.20;;
20454;SDS011;10386;54.314;10.022;2023-04-03T04:35:27;3.27;;;2.10;;
20454;SDS011;10386;54.314;10.022;2023-04-03T04:37:54;4.97;;;2.23;;
20454;SDS011;10386;54.314;10.022;2023-04-03T04:40:21;4.20;;;2.20;;
20454;SDS011;10386;54.314;10.022;2023-04-03T04:42:48;3.13;;;2.23;;
20454;SDS011;10386;54.314;10.022;2023-04-03T04:45:15;7.13;;;2.20;;
20454;SDS011;10386;54.314;10.022;2023-04-03T04:47:42;6.80;;;3.07;;
20454;SDS011;10386;54.314;10.022;2023-04-03T04:50:10;4.57;;;2.40;;
20454;SDS011;10386;54.314;10.022;2023-04-03T04:52:37;3.63;;;2.30;;
20454;SDS011;10386;54.314;10.022;2023-04-03T04:55:05;3.43;;;2.33;;
20454;SDS011;10386;54.314;10.022;2023-04-03T04:57:32;2.97;;;2.60;;
20454;SDS011;10386;54.314;10.022;2023-04-03T04:59:58;5.33;;;2.83;;
20454;SDS011;10386;54.314;10.022;2023-04-03T05:02:25;4.73;;;2.80;;
20454;SDS011;10386;54.314;10.022;2023-04-03T05:04:52;4.80;;;2.70;;
20454;SDS011;10386;54.314;10.022;2023-04-03T05:07:19;3.93;;;2.70;;
20454;SDS011;10386;54.314;10.022;2023-04-03T05:09:46;6.87;;;2.97;;
20454;SDS011;10386;54.314;10.022;2023-04-03T05:12:13;4.63;;;2.73;;
20454;SDS011;10386;54.314;10.022;2023-04-03T05:14:39;3.43;;;2.83;;
20454;SDS011;10386;54.314;10.022;2023-04-03T05:17:06;7.77;;;3.40;;
20454;SDS011;10386;54.314;10.022;2023-04-03T05:19:33;2.97;;;2.40;;
20454;SDS011;10386;54.314;10.022;2023-04-03T05:22:00;5.40;;;3.13;;
20454;SDS011;10386;54.314;10.022;2023-04-03T05:24:28;4.10;;;2.30;;
20454;SDS011;10386;54.314;10.022;2023-04-03T05:26:54;5.53;;;2.97;;
20454;SDS011;10386;54.314;10.022;2023-04-03T05:29:21;4.87;;;3.40;;
20454;SDS011;10386;54.314;10.022;2023-04-03T05:31:49;7.23;;;3.17;;
20454;SDS011;10386;54.314;10.022;2023-04-03T05:34:16;4.80;;;3.30;;
20454;SDS011;10386;54.314;10.022;2023-04-03T05:36:44;6.10;;;2.87;;
20454;SDS011;10386;54.314;10.022;2023-04-03T05:39:11;4.10;;;2.77;;
20454;SDS011;10386;54.314;10.022;2023-04-03T05:41:38;6.33;;;3.37;;
20454;SDS011;10386;54.314;10.022;2023-04-03T05:44:04;5.07;;;3.00;;
20454;SDS011;10386;54.314;10.022;2023-04-03T05:46:32;5.23;;;3.63;;
20454;SDS011;10386;54.314;10.022;2023-04-03T05:48:59;6.33;;;3.60;;
20454;SDS011;10386;54.314;10.022;2023-04-03T05:51:29;6.27;;;3.53;;
20454;SDS011;10386;54.314;10.022;2023-04-03T05:54:02;5.47;;;3.57;;
20454;SDS011;10386;54.314;10.022;2023-04-03T05:56:39;9.57;;;3.53;;
20454;SDS011;10386;54.314;10.022;2023-04-03T05:59:06;8.63;;;3.77;;
20454;SDS011;10386;54.314;10.022;2023-04-03T06:01:33;10.30;;;5.77;;
20454;SDS011;10386;54.314;10.022;2023-04-03T06:04:01;13.07;;;5.20;;
20454;SDS011;10386;54.314;10.022;2023-04-03T06:09:10;8.67;;;4.47;;
20454;SDS011;10386;54.314;10.022;2023-04-03T06:11:37;9.20;;;4.43;;
20454;SDS011;10386;54.314;10.022;2023-04-03T06:14:03;12.60;;;5.10;;
20454;SDS011;10386;54.314;10.022;2023-04-03T06:16:30;12.10;;;6.37;;
20454;SDS011;10386;54.314;10.022;2023-04-03T06:18:57;12.77;;;5.30;;
20454;SDS011;10386;54.314;10.022;2023-04-03T06:21:23;8.33;;;4.20;;
20454;SDS011;10386;54.314;10.022;2023-04-03T06:23:50;10.03;;;3.30;;
20454;SDS011;10386;54.314;10.022;2023-04-03T06:26:17;11.60;;;3.53;;
20454;SDS011;10386;54.314;10.022;2023-04-03T06:28:44;9.90;;;3.93;;
20454;SDS011;10386;54.314;10.022;2023-04-03T06:31:11;9.37;;;3.70;;
20454;SDS011;10386;54.314;10.022;2023-04-03T06:33:38;8.63;;;3.87;;
20454;SDS011;10386;54.314;10.022;2023-04-03T06:36:05;8.90;;;4.07;;
20454;SDS011;10386;54.314;10.022;2023-04-03T06:38:33;11.23;;;4.37;;
20454;SDS011;10386;54.314;10.022;2023-04-03T06:41:04;7.10;;;3.67;;
20454;SDS011;10386;54.314;10.022;2023-04-03T06:43:31;7.17;;;3.80;;
20454;SDS011;10386;54.314;10.022;2023-04-03T06:46:00;10.10;;;4.40;;
20454;SDS011;10386;54.314;10.022;2023-04-03T06:48:27;8.17;;;3.50;;
20454;SDS011;10386;54.314;10.022;2023-04-03T06:50:54;6.50;;;3.60;;
20454;SDS011;10386;54.314;10.022;2023-04-03T06:53:21;5.20;;;3.63;;
20454;SDS011;10386;54.314;10.022;2023-04-03T06:55:48;9.00;;;3.33;;
20454;SDS011;10386;54.314;10.022;2023-04-03T06:58:14;8.63;;;3.70;;
20454;SDS011;10386;54.314;10.022;2023-04-03T07:00:44;4.40;;;3.43;;
20454;SDS011;10386;54.314;10.022;2023-04-03T07:03:11;7.53;;;3.77;;
20454;SDS011;10386;54.314;10.022;2023-04-03T07:05:38;6.67;;;3.50;;
20454;SDS011;10386;54.314;10.022;2023-04-03T07:08:05;8.70;;;4.17;;
20454;SDS011;10386;54.314;10.022;2023-04-03T07:10:32;7.27;;;3.70;;
20454;SDS011;10386;54.314;10.022;2023-04-03T07:12:59;4.87;;;3.27;;
20454;SDS011;10386;54.314;10.022;2023-04-03T07:15:26;9.00;;;3.57;;
20454;SDS011;10386;54.314;10.022;2023-04-03T07:17:52;6.60;;;3.20;;
20454;SDS011;10386;54.314;10.022;2023-04-03T07:20:19;4.07;;;3.17;;
20454;SDS011;10386;54.314;10.022;2023-04-03T07:22:46;3.53;;;2.70;;
20454;SDS011;10386;54.314;10.022;2023-04-03T07:25:13;6.50;;;2.77;;
20454;SDS011;10386;54.314;10.022;2023-04-03T07:27:39;3.57;;;2.37;;
20454;SDS011;10386;54.314;10.022;2023-04-03T07:30:06;6.37;;;2.87;;
20454;SDS011;10386;54.314;10.022;2023-04-03T07:32:34;10.87;;;2.73;;
20454;SDS011;10386;54.314;10.022;2023-04-03T07:35:01;6.43;;;3.50;;
20454;SDS011;10386;54.314;10.022;2023-04-03T07:37:29;6.53;;;3.07;;
20454;SDS011;10386;54.314;10.022;2023-04-03T07:39:56;7.00;;;2.77;;
20454;SDS011;10386;54.314;10.022;2023-04-03T07:42:25;7.43;;;2.90;;
20454;SDS011;10386;54.314;10.022;2023-04-03T07:44:54;10.00;;;2.87;;
20454;SDS011;10386;54.314;10.022;2023-04-03T07:47:20;8.73;;;2.63;;
20454;SDS011;10386;54.314;10.022;2023-04-03T07:49:47;3.90;;;2.20;;
20454;SDS011;10386;54.314;10.022;2023-04-03T07:52:14;6.77;;;2.53;;
20454;SDS011;10386;54.314;10.022;2023-04-03T07:54:41;5.10;;;2.37;;
20454;SDS011;10386;54.314;10.022;2023-04-03T07:57:08;3.47;;;2.00;;
20454;SDS011;10386;54.314;10.022;2023-04-03T07:59:35;7.03;;;2.30;;
20454;SDS011;10386;54.314;10.022;2023-04-03T08:02:02;6.50;;;2.17;;
20454;SDS011;10386;54.314;10.022;2023-04-03T08:04:31;3.43;;;1.90;;
20454;SDS011;10386;54.314;10.022;2023-04-03T08:06:58;6.27;;;1.63;;
20454;SDS011;10386;54.314;10.022;2023-04-03T08:09:25;2.23;;;1.63;;
20454;SDS011;10386;54.314;10.022;2023-04-03T08:11:51;8.17;;;2.30;;
20454;SDS011;10386;54.314;10.022;2023-04-03T08:14:19;4.53;;;1.67;;
20454;SDS011;10386;54.314;10.022;2023-04-03T08:16:47;9.20;;;2.17;;
20454;SDS011;10386;54.314;10.022;2023-04-03T08:19:14;4.17;;;1.90;;
20454;SDS011;10386;54.314;10.022;2023-04-03T08:21:51;9.70;;;2.10;;
20454;SDS011;10386;54.314;10.022;2023-04-03T08:24:19;2.57;;;1.63;;
20454;SDS011;10386;54.314;10.022;2023-04-03T08:26:46;3.40;;;1.73;;
20454;SDS011;10386;54.314;10.022;2023-04-03T08:29:13;5.50;;;1.80;;
20454;SDS011;10386;54.314;10.022;2023-04-03T08:31:40;7.50;;;1.90;;
20454;SDS011;10386;54.314;10.022;2023-04-03T08:34:06;6.57;;;2.73;;
20454;SDS011;10386;54.314;10.022;2023-04-03T08:36:33;4.37;;;1.87;;
20454;SDS011;10386;54.314;10.022;2023-04-03T08:39:00;3.87;;;1.80;;
20454;SDS011;10386;54.314;10.022;2023-04-03T08:41:34;6.17;;;1.80;;
20454;SDS011;10386;54.314;10.022;2023-04-03T08:52:14;4.47;;;1.60;;
20454;SDS011;10386;54.314;10.022;2023-04-03T08:55:03;7.10;;;1.80;;
20454;SDS011;10386;54.314;10.022;2023-04-03T08:57:34;5.13;;;1.80;;
20454;SDS011;10386;54.314;10.022;2023-04-03T09:00:06;4.23;;;1.70;;
20454;SDS011;10386;54.314;10.022;2023-04-03T09:02:44;5.00;;;1.87;;
20454;SDS011;10386;54.314;10.022;2023-04-03T09:05:15;2.80;;;1.53;;
20454;SDS011;10386;54.314;10.022;2023-04-03T09:07:51;3.10;;;1.47;;
20454;SDS011;10386;54.314;10.022;2023-04-03T09:10:29;3.90;;;1.80;;
20454;SDS011;10386;54.314;10.022;2023-04-03T09:15:57;3.37;;;1.93;;
20454;SDS011;10386;54.314;10.022;2023-04-03T09:18:28;3.67;;;1.70;;
20454;SDS011;10386;54.314;10.022;2023-04-03T09:21:13;4.10;;;1.80;;
20454;SDS011;10386;54.314;10.022;2023-04-03T09:23:47;3.20;;;2.13;;
20454;SDS011;10386;54.314;10.022;2023-04-03T09:26:17;5.90;;;2.00;;
20454;SDS011;10386;54.314;10.022;2023-04-03T09:28:47;3.17;;;1.60;;
20454;SDS011;10386;54.314;10.022;2023-04-03T09:33:47;5.27;;;1.60;;
20454;SDS011;10386;54.314;10.022;2023-04-03T09:39:12;3.77;;;1.80;;
20454;SDS011;10386;54.314;10.022;2023-04-03T09:41:54;1.77;;;1.40;;
20454;SDS011;10386;54.314;10.022;2023-04-03T09:44:29;5.57;;;1.60;;
20454;SDS011;10386;54.314;10.022;2023-04-03T09:47:17;4.87;;;1.60;;
20454;SDS011;10386;54.314;10.022;2023-04-03T09:49:45;4.27;;;1.70;;
20454;SDS011;10386;54.314;10.022;2023-04-03T09:52:19;3.57;;;1.47;;
20454;SDS011;10386;54.314;10.022;2023-04-03T09:54:50;3.03;;;1.40;;
20454;SDS011;10386;54.314;10.022;2023-04-03T09:57:17;3.50;;;1.50;;
20454;SDS011;10386;54.314;10.022;2023-04-03T09:59:58;4.73;;;1.50;;
20454;SDS011;10386;54.314;10.022;2023-04-03T10:05:23;4.10;;;1.70;;
20454;SDS011;10386;54.314;10.022;2023-04-03T10:10:41;3.17;;;1.80;;
20454;SDS011;10386;54.314;10.022;2023-04-03T10:13:20;3.77;;;1.60;;
20454;SDS011;10386;54.314;10.022;2023-04-03T10:21:15;2.30;;;1.17;;
20454;SDS011;10386;54.314;10.022;2023-04-03T10:24:17;3.63;;;1.60;;
20454;SDS011;10386;54.314;10.022;2023-04-03T10:27:30;5.40;;;1.97;;
20454;SDS011;10386;54.314;10.022;2023-04-03T10:38:21;1.63;;;1.30;;
20454;SDS011;10386;54.314;10.022;2023-04-03T10:40:59;1.47;;;1.30;;
20454;SDS011;10386;54.314;10.022;2023-04-03T10:43:40;2.57;;;1.60;;
20454;SDS011;10386;54.314;10.022;2023-04-03T10:52:09;3.07;;;1.40;;
20454;SDS011;10386;54.314;10.022;2023-04-03T10:55:01;1.37;;;1.20;;
20454;SDS011;10386;54.314;10.022;2023-04-03T10:57:36;2.97;;;1.50;;
20454;SDS011;10386;54.314;10.022;2023-04-03T11:00:05;3.50;;;1.13;;
20454;SDS011;10386;54.314;10.022;2023-04-03T11:02:51;3.57;;;1.50;;
20454;SDS011;10386;54.314;10.022;2023-04-03T11:05:31;1.57;;;1.30;;
20454;SDS011;10386;54.314;10.022;2023-04-03T11:11:00;1.40;;;1.20;;
20454;SDS011;10386;54.314;10.022;2023-04-03T11:16:39;4.93;;;1.63;;
20454;SDS011;10386;54.314;10.022;2023-04-03T11:19:20;5.07;;;1.60;;
20454;SDS011;10386;54.314;10.022;2023-04-03T11:21:57;2.40;;;1.50;;
20454;SDS011;10386;54.314;10.022;2023-04-03T11:24:32;2.80;;;1.63;;
20454;SDS011;10386;54.314;10.022;2023-04-03T11:27:02;2.17;;;1.70;;
20454;SDS011;10386;54.314;10.022;2023-04-03T11:29:32;2.63;;;1.83;;
20454;SDS011;10386;54.314;10.022;2023-04-03T11:32:07;2.97;;;1.70;;
20454;SDS011;10386;54.314;10.022;2023-04-03T11:34:45;5.47;;;1.23;;
20454;SDS011;10386;54.314;10.022;2023-04-03T11:37:25;1.67;;;1.50;;
20454;SDS011;10386;54.314;10.022;2023-04-03T11:39:59;3.20;;;1.40;;
20454;SDS011;10386;54.314;10.022;2023-04-03T11:47:57;2.90;;;1.23;;
20454;SDS011;10386;54.314;10.022;2023-04-03T12:16:19;2.87;;;1.33;;
20454;SDS011;10386;54.314;10.022;2023-04-03T12:26:31;3.53;;;1.20;;
20454;SDS011;10386;54.314;10.022;2023-04-03T12:31:55;6.53;;;1.57;;
20454;SDS011;10386;54.314;10.022;2023-04-03T12:37:34;1.63;;;1.20;;
20454;SDS011;10386;54.314;10.022;2023-04-03T12:40:26;6.60;;;1.90;;
20454;SDS011;10386;54.314;10.022;2023-04-03T12:43:38;1.83;;;1.10;;
20454;SDS011;10386;54.314;10.022;2023-04-03T12:46:26;3.33;;;1.50;;
20454;SDS011;10386;54.314;10.022;2023-04-03T12:49:05;6.80;;;1.23;;
20454;SDS011;10386;54.314;10.022;2023-04-03T12:51:59;10.87;;;1.70;;
20454;SDS011;10386;54.314;10.022;2023-04-03T12:54:36;2.27;;;1.43;;
20454;SDS011;10386;54.314;10.022;2023-04-03T12:57:16;3.40;;;1.30;;
20454;SDS011;10386;54.314;10.022;2023-04-03T12:59:54;3.13;;;1.70;;
20454;SDS011;10386;54.314;10.022;2023-04-03T13:05:05;2.20;;;1.63;;
20454;SDS011;10386;54.314;10.022;2023-04-03T13:07:36;2.83;;;1.77;;
20454;SDS011;10386;54.314;10.022;2023-04-03T13:12:34;1.67;;;1.27;;
20454;SDS011;10386;54.314;10.022;2023-04-03T13:15:16;3.67;;;1.53;;
20454;SDS011;10386;54.314;10.022;2023-04-03T13:17:46;1.87;;;1.40;;
20454;SDS011;10386;54.314;10.022;2023-04-03T13:22:50;4.23;;;1.53;;
20454;SDS011;10386;54.314;10.022;2023-04-03T13:25:23;3.20;;;1.43;;
20454;SDS011;10386;54.314;10.022;2023-04-03T13:27:52;4.37;;;1.57;;
20454;SDS011;10386;54.314;10.022;2023-04-03T13:30:38;3.17;;;1.30;;
20454;SDS011;10386;54.314;10.022;2023-04-03T13:33:18;1.53;;;1.40;;
20454;SDS011;10386;54.314;10.022;2023-04-03T13:35:47;2.03;;;1.30;;
20454;SDS011;10386;54.314;10.022;2023-04-03T13:38:25;1.30;;;1.20;;
20454;SDS011;10386;54.314;10.022;2023-04-03T13:40:58;1.43;;;1.30;;
20454;SDS011;10386;54.314;10.022;2023-04-03T13:43:27;2.50;;;1.30;;
20454;SDS011;10386;54.314;10.022;2023-04-03T13:46:01;2.23;;;1.40;;
20454;SDS011;10386;54.314;10.022;2023-04-03T13:48:49;1.43;;;1.30;;
20454;SDS011;10386;54.314;10.022;2023-04-03T13:51:20;3.20;;;1.27;;
20454;SDS011;10386;54.314;10.022;2023-04-03T13:53:51;2.17;;;1.33;;
20454;SDS011;10386;54.314;10.022;2023-04-03T13:59:03;2.87;;;1.37;;
20454;SDS011;10386;54.314;10.022;2023-04-03T14:01:43;1.30;;;1.20;;
20454;SDS011;10386;54.314;10.022;2023-04-03T14:04:25;3.27;;;1.33;;
20454;SDS011;10386;54.314;10.022;2023-04-03T14:06:54;2.63;;;1.60;;
20454;SDS011;10386;54.314;10.022;2023-04-03T14:09:22;2.70;;;1.40;;
20454;SDS011;10386;54.314;10.022;2023-04-03T14:11:52;2.10;;;1.33;;
20454;SDS011;10386;54.314;10.022;2023-04-03T14:14:29;2.73;;;1.60;;
20454;SDS011;10386;54.314;10.022;2023-04-03T14:16:59;4.77;;;1.80;;
20454;SDS011;10386;54.314;10.022;2023-04-03T14:19:30;2.83;;;1.50;;
20454;SDS011;10386;54.314;10.022;2023-04-03T14:22:00;3.27;;;1.43;;
20454;SDS011;10386;54.314;10.022;2023-04-03T14:24:27;4.67;;;1.40;;
20454;SDS011;10386;54.314;10.022;2023-04-03T14:26:54;3.00;;;1.50;;
20454;SDS011;10386;54.314;10.022;2023-04-03T14:29:21;3.97;;;1.97;;
20454;SDS011;10386;54.314;10.022;2023-04-03T14:31:49;2.90;;;1.37;;
20454;SDS011;10386;54.314;10.022;2023-04-03T14:34:25;1.93;;;1.70;;
20454;SDS011;10386;54.314;10.022;2023-04-03T14:36:52;4.83;;;1.90;;
20454;SDS011;10386;54.314;10.022;2023-04-03T14:39:20;3.37;;;1.67;;
20454;SDS011;10386;54.314;10.022;2023-04-03T14:41:46;1.93;;;1.30;;
20454;SDS011;10386;54.314;10.022;2023-04-03T14:44:13;3.50;;;1.50;;
20454;SDS011;10386;54.314;10.022;2023-04-03T14:46:41;2.07;;;1.40;;
20454;SDS011;10386;54.314;10.022;2023-04-03T14:49:23;6.67;;;1.97;;
20454;SDS011;10386;54.314;10.022;2023-04-03T14:51:52;2.43;;;1.40;;
20454;SDS011;10386;54.314;10.022;2023-04-03T14:54:21;4.53;;;1.50;;
20454;SDS011;10386;54.314;10.022;2023-04-03T14:56:55;1.40;;;1.30;;
20454;SDS011;10386;54.314;10.022;2023-04-03T14:59:23;4.83;;;1.77;;
20454;SDS011;10386;54.314;10.022;2023-04-03T15:01:51;2.33;;;1.73;;
20454;SDS011;10386;54.314;10.022;2023-04-03T15:04:19;3.40;;;1.53;;
20454;SDS011;10386;54.314;10.022;2023-04-03T15:06:47;4.50;;;1.30;;
20454;SDS011;10386;54.314;10.022;2023-04-03T15:09:22;4.00;;;2.17;;
20454;SDS011;10386;54.314;10.022;2023-04-03T15:11:51;5.60;;;1.67;;
20454;SDS011;10386;54.314;10.022;2023-04-03T15:14:20;7.97;;;1.80;;
20454;SDS011;10386;54.314;10.022;2023-04-03T15:17:03;4.43;;;2.10;;
20454;SDS011;10386;54.314;10.022;2023-04-03T15:19:38;4.07;;;1.50;;
20454;SDS011;10386;54.314;10.022;2023-04-03T15:22:05;4.10;;;1.60;;
20454;SDS011;10386;54.314;10.022;2023-04-03T15:24:33;2.30;;;1.60;;
20454;SDS011;10386;54.314;10.022;2023-04-03T15:26:59;2.23;;;1.60;;
20454;SDS011;10386;54.314;10.022;2023-04-03T15:29:27;3.07;;;1.43;;
20454;SDS011;10386;54.314;10.022;2023-04-03T15:31:54;3.00;;;1.50;;
20454;SDS011;10386;54.314;10.022;2023-04-03T15:34:21;4.40;;;1.77;;
20454;SDS011;10386;54.314;10.022;2023-04-03T15:36:49;3.30;;;1.80;;
20454;SDS011;10386;54.314;10.022;2023-04-03T15:39:19;3.63;;;1.70;;
20454;SDS011;10386;54.314;10.022;2023-04-03T15:41:47;2.30;;;1.40;;
20454;SDS011;10386;54.314;10.022;2023-04-03T15:44:13;3.07;;;1.50;;
20454;SDS011;10386;54.314;10.022;2023-04-03T15:46:44;8.73;;;1.87;;
20454;SDS011;10386;54.314;10.022;2023-04-03T15:49:12;3.33;;;1.50;;
20454;SDS011;10386;54.314;10.022;2023-04-03T15:51:39;3.77;;;1.83;;
20454;SDS011;10386;54.314;10.022;2023-04-03T15:54:06;3.63;;;1.53;;
20454;SDS011;10386;54.314;10.022;2023-04-03T15:56:33;7.50;;;1.73;;
20454;SDS011;10386;54.314;10.022;2023-04-03T15:58:59;3.07;;;1.80;;
20454;SDS011;10386;54.314;10.022;2023-04-03T16:01:26;2.80;;;1.70;;
20454;SDS011;10386;54.314;10.022;2023-04-03T16:03:54;4.40;;;1.70;;
20454;SDS011;10386;54.314;10.022;2023-04-03T16:06:21;5.03;;;1.67;;
20454;SDS011;10386;54.314;10.022;2023-04-03T16:08:47;2.43;;;1.60;;
20454;SDS011;10386;54.314;10.022;2023-04-03T16:11:15;2.73;;;1.40;;
20454;SDS011;10386;54.314;10.022;2023-04-03T16:13:42;2.57;;;1.57;;
20454;SDS011;10386;54.314;10.022;2023-04-03T16:16:09;3.73;;;1.50;;
20454;SDS011;10386;54.314;10.022;2023-04-03T16:18:36;3.37;;;1.40;;
20454;SDS011;10386;54.314;10.022;2023-04-03T16:21:03;3.57;;;1.63;;
20454;SDS011;10386;54.314;10.022;2023-04-03T16:23:32;6.27;;;1.67;;
20454;SDS011;10386;54.314;10.022;2023-04-03T16:25:59;2.83;;;1.30;;
20454;SDS011;10386;54.314;10.022;2023-04-03T16:28:26;4.43;;;1.40;;
20454;SDS011;10386;54.314;10.022;2023-04-03T16:30:52;1.87;;;1.43;;
20454;SDS011;10386;54.314;10.022;2023-04-03T16:33:19;2.53;;;1.37;;
20454;SDS011;10386;54.314;10.022;2023-04-03T16:35:48;2.50;;;1.50;;
20454;SDS011;10386;54.314;10.022;2023-04-03T16:38:16;2.73;;;1.60;;
20454;SDS011;10386;54.314;10.022;2023-04-03T16:40:45;3.60;;;1.33;;
20454;SDS011;10386;54.314;10.022;2023-04-03T16:43:12;4.30;;;1.40;;
20454;SDS011;10386;54.314;10.022;2023-04-03T16:45:39;4.73;;;1.80;;
20454;SDS011;10386;54.314;10.022;2023-04-03T16:48:06;4.13;;;1.60;;